Time;durP1;ratioP1;P1;durP2;ratioP2;P2;SDS_P1;SDS_P2;PMS_P1;PMS_P2;Temp;Humidity;BMP_temperature;BMP_pressure;BME280_temperature;BME280_humidity;BME280_pressure;Samples;Min_cycle;Max_cycle;Signal;HPM_P1;HPM_P2
2023/12/21 00:01:38;;;;;;;22.63;4.68;;;10.10;99.90;;;;;;5031827;28;20124;-54
2023/12/21 00:04:04;;;;;;;23.77;4.85;;;10.50;99.90;;;;;;5030287;28;20049;-53
2023/12/21 00:06:30;;;;;;;21.17;5.13;;;10.40;99.90;;;;;;5031313;28;20117;-54
2023/12/21 00:08:55;;;;;;;24.52;5.22;;;10.10;99.90;;;;;;5030876;28;20124;-54
2023/12/21 00:11:22;;;;;;;14.68;4.78;;;9.90;99.90;;;;;;5031525;28;20543;-52
2023/12/21 00:13:47;;;;;;;19.35;4.75;;;9.90;99.90;;;;;;5031622;28;20033;-51
2023/12/21 00:16:13;;;;;;;23.17;4.90;;;10.70;99.90;;;;;;5031500;28;20052;-50
2023/12/21 00:18:39;;;;;;;25.92;5.07;;;10.10;99.90;;;;;;5031378;28;21212;-50
2023/12/21 00:21:06;;;;;;;21.20;5.03;;;10.00;99.90;;;;;;5030368;28;20048;-52
2023/12/21 00:23:32;;;;;;;21.50;4.90;;;10.70;99.90;;;;;;5030389;28;20056;-50
2023/12/21 00:25:57;;;;;;;17.60;4.03;;;10.30;99.90;;;;;;5029937;28;20429;-54
2023/12/21 00:28:23;;;;;;;22.13;4.72;;;10.20;99.90;;;;;;5030343;28;20068;-49
2023/12/21 00:30:49;;;;;;;26.10;4.85;;;9.90;99.90;;;;;;5031383;28;20496;-51
2023/12/21 00:33:15;;;;;;;24.38;4.13;;;10.60;99.90;;;;;;5029387;28;20060;-51
2023/12/21 00:35:40;;;;;;;17.40;4.35;;;10.10;99.90;;;;;;5030348;28;20112;-51
2023/12/21 00:38:06;;;;;;;18.05;4.40;;;10.40;99.90;;;;;;5030135;28;20064;-51
2023/12/21 00:40:32;;;;;;;29.38;5.22;;;9.90;99.90;;;;;;5030435;28;20045;-52
2023/12/21 00:42:57;;;;;;;21.02;4.40;;;10.70;99.90;;;;;;5029658;28;20077;-54
2023/12/21 00:45:23;;;;;;;25.75;4.05;;;9.90;99.90;;;;;;5030663;28;20053;-52
2023/12/21 00:47:49;;;;;;;16.52;3.65;;;10.50;99.90;;;;;;5030934;28;20041;-50
2023/12/21 00:50:15;;;;;;;17.90;3.75;;;10.30;99.90;;;;;;5031036;28;20052;-53
2023/12/21 00:52:41;;;;;;;17.80;4.13;;;10.00;99.90;;;;;;5031292;28;20041;-53
2023/12/21 00:55:07;;;;;;;12.35;3.22;;;10.40;99.90;;;;;;5031283;28;20026;-52
2023/12/21 00:57:33;;;;;;;16.73;3.83;;;10.60;99.90;;;;;;5029111;28;20041;-51
2023/12/21 00:59:59;;;;;;;16.65;3.17;;;10.80;99.90;;;;;;5030721;28;20160;-47
2023/12/21 01:02:24;;;;;;;13.77;3.67;;;9.90;99.90;;;;;;5030871;28;20048;-51
2023/12/21 01:04:50;;;;;;;16.60;3.22;;;10.60;99.90;;;;;;5028765;28;20538;-54
2023/12/21 01:07:16;;;;;;;22.05;3.63;;;10.60;99.90;;;;;;5030845;28;20458;-52
2023/12/21 01:09:41;;;;;;;20.77;3.10;;;10.30;99.90;;;;;;5030523;28;20465;-51
2023/12/21 01:12:07;;;;;;;18.05;3.15;;;10.80;99.90;;;;;;5030768;28;20041;-51
2023/12/21 01:14:33;;;;;;;20.50;3.70;;;10.10;99.90;;;;;;5030960;28;20037;-49
2023/12/21 01:16:59;;;;;;;20.10;3.30;;;10.70;99.90;;;;;;5030821;28;20037;-49
2023/12/21 01:19:26;;;;;;;18.25;3.45;;;10.40;99.90;;;;;;5030442;28;20401;-53
2023/12/21 01:21:52;;;;;;;19.48;3.10;;;10.80;99.90;;;;;;5030371;28;20037;-51
2023/12/21 01:24:18;;;;;;;14.93;3.00;;;10.70;99.90;;;;;;5030557;28;20037;-50
2023/12/21 01:26:43;;;;;;;14.27;3.10;;;10.10;99.90;;;;;;5030715;28;20041;-52
2023/12/21 01:29:09;;;;;;;18.88;3.28;;;10.60;99.90;;;;;;5030643;28;20445;-49
2023/12/21 01:31:35;;;;;;;20.80;3.33;;;10.00;99.90;;;;;;5030698;28;20041;-54
2023/12/21 01:34:01;;;;;;;19.33;3.05;;;9.90;99.90;;;;;;5030645;28;20385;-53
2023/12/21 01:36:28;;;;;;;17.30;3.17;;;9.80;99.90;;;;;;5030787;28;20481;-52
2023/12/21 01:38:54;;;;;;;14.75;2.58;;;9.20;99.90;;;;;;5033089;28;20034;-52
2023/12/21 01:41:19;;;;;;;13.02;2.58;;;10.10;99.90;;;;;;5034683;28;20120;-52
2023/12/21 01:43:45;;;;;;;15.25;3.55;;;10.60;99.90;;;;;;5034174;28;20045;-54
2023/12/21 01:46:11;;;;;;;18.02;2.92;;;9.90;99.90;;;;;;5034069;28;20732;-53
2023/12/21 01:48:39;;;;;;;12.80;2.50;;;10.30;99.90;;;;;;5034106;28;20045;-52
2023/12/21 01:51:05;;;;;;;13.65;2.80;;;10.00;99.90;;;;;;5049495;28;20260;-51
2023/12/21 01:53:32;;;;;;;16.85;3.05;;;10.20;99.90;;;;;;5034435;28;20531;-54
2023/12/21 01:55:59;;;;;;;21.45;3.45;;;10.40;99.90;;;;;;5034456;28;20041;-54
2023/12/21 01:58:25;;;;;;;20.83;3.17;;;10.50;99.90;;;;;;5034376;28;20152;-53
2023/12/21 02:00:52;;;;;;;13.30;2.45;;;10.60;99.90;;;;;;5031821;28;20125;-50
2023/12/21 02:03:18;;;;;;;19.40;3.03;;;9.90;99.90;;;;;;5034426;28;20064;-49
2023/12/21 02:05:44;;;;;;;16.52;2.58;;;10.40;99.90;;;;;;5033792;28;20033;-53
2023/12/21 02:08:09;;;;;;;18.40;2.92;;;10.40;99.90;;;;;;5033599;28;20144;-51
2023/12/21 02:10:39;;;;;;;13.15;2.42;;;10.10;99.90;;;;;;5033977;28;20049;-51
2023/12/21 02:13:05;;;;;;;11.95;2.30;;;9.90;99.90;;;;;;5033671;28;20108;-51
2023/12/21 02:15:31;;;;;;;17.40;2.65;;;9.70;99.90;;;;;;5033751;28;20484;-50
2023/12/21 02:18:01;;;;;;;15.10;2.90;;;10.50;99.90;;;;;;5034024;28;20034;-53
2023/12/21 02:20:27;;;;;;;16.30;2.90;;;9.90;99.90;;;;;;5033747;28;20068;-54
2023/12/21 02:22:56;;;;;;;15.00;2.53;;;9.80;99.90;;;;;;5033485;28;20049;-48
2023/12/21 02:25:22;;;;;;;19.20;3.15;;;10.50;99.90;;;;;;5033725;28;20029;-54
2023/12/21 02:27:50;;;;;;;18.35;2.75;;;9.80;99.90;;;;;;5031967;28;20072;-53
2023/12/21 02:30:15;;;;;;;19.77;3.35;;;9.90;99.90;;;;;;5033325;28;20480;-51
2023/12/21 02:32:41;;;;;;;17.63;3.15;;;9.80;99.90;;;;;;5048686;28;20033;-51
2023/12/21 02:35:07;;;;;;;20.77;3.97;;;9.80;99.90;;;;;;5033228;28;20029;-49
2023/12/21 02:37:33;;;;;;;16.42;3.40;;;10.30;99.90;;;;;;5033628;28;20183;-51
2023/12/21 02:39:59;;;;;;;22.88;3.83;;;10.30;99.90;;;;;;5032722;28;20069;-49
2023/12/21 02:42:24;;;;;;;17.35;3.58;;;9.80;99.90;;;;;;5033177;28;20199;-49
2023/12/21 02:44:50;;;;;;;23.48;4.38;;;10.00;99.90;;;;;;5033002;28;20084;-51
2023/12/21 02:47:16;;;;;;;21.10;3.88;;;10.30;99.90;;;;;;5033317;28;20053;-52
2023/12/21 02:49:41;;;;;;;16.40;3.60;;;10.40;99.90;;;;;;5031138;28;20107;-52
2023/12/21 02:52:07;;;;;;;21.35;4.30;;;10.20;99.90;;;;;;5033071;28;20041;-52
2023/12/21 02:54:33;;;;;;;26.98;4.82;;;10.50;99.90;;;;;;5032051;28;20116;-54
2023/12/21 02:56:58;;;;;;;24.58;5.13;;;10.60;99.90;;;;;;5032139;28;20457;-54
2023/12/21 02:59:24;;;;;;;16.75;3.88;;;10.60;99.90;;;;;;5032130;28;20039;-52
2023/12/21 03:01:50;;;;;;;19.08;4.50;;;9.80;99.90;;;;;;5033082;28;20083;-54
2023/12/21 03:04:15;;;;;;;19.48;4.13;;;10.60;99.90;;;;;;5031784;28;20088;-53
2023/12/21 03:06:41;;;;;;;21.33;5.95;;;10.50;99.90;;;;;;5032903;28;21334;-52
2023/12/21 03:09:07;;;;;;;22.70;4.85;;;9.80;99.90;;;;;;5030163;28;20061;-51
2023/12/21 03:11:32;;;;;;;18.40;5.10;;;9.80;99.90;;;;;;5032251;28;20064;-52
2023/12/21 03:13:58;;;;;;;21.60;5.35;;;10.10;99.90;;;;;;5032866;28;20033;-52
2023/12/21 03:16:24;;;;;;;26.83;5.82;;;10.10;99.90;;;;;;5032719;28;20037;-51
2023/12/21 03:18:49;;;;;;;21.42;4.95;;;10.00;99.90;;;;;;5032419;28;20064;-52
2023/12/21 03:21:15;;;;;;;20.85;5.35;;;10.40;99.90;;;;;;5032559;28;20132;-51
2023/12/21 03:23:41;;;;;;;22.83;5.70;;;10.60;99.90;;;;;;5032595;28;20045;-53
2023/12/21 03:26:10;;;;;;;25.08;5.63;;;10.30;99.90;;;;;;5032314;28;20417;-54
2023/12/21 03:28:36;;;;;;;19.85;5.32;;;9.80;99.90;;;;;;5032080;28;20298;-54
2023/12/21 03:31:05;;;;;;;22.35;4.95;;;9.80;99.90;;;;;;5032345;28;20086;-49
2023/12/21 03:33:31;;;;;;;21.08;5.40;;;10.70;99.90;;;;;;5032652;28;20033;-53
2023/12/21 03:35:57;;;;;;;25.67;4.97;;;10.30;99.90;;;;;;5032473;28;20037;-50
2023/12/21 03:38:22;;;;;;;23.67;5.60;;;9.80;99.90;;;;;;5031981;28;20041;-52
2023/12/21 03:40:48;;;;;;;18.17;5.32;;;9.90;99.90;;;;;;5032383;28;20072;-54
2023/12/21 03:43:13;;;;;;;21.58;5.68;;;10.70;99.90;;;;;;5032223;28;20048;-53
2023/12/21 03:45:40;;;;;;;22.70;4.95;;;10.30;99.90;;;;;;5031629;28;20060;-49
2023/12/21 03:48:10;;;;;;;20.98;4.97;;;10.20;99.90;;;;;;5031906;28;20393;-52
2023/12/21 03:50:36;;;;;;;26.98;5.22;;;9.90;99.90;;;;;;5031972;28;20037;-54
2023/12/21 03:53:03;;;;;;;27.92;5.95;;;9.80;99.90;;;;;;5030402;28;20041;-48
2023/12/21 03:55:29;;;;;;;22.52;4.88;;;10.30;99.90;;;;;;5030556;28;20037;-50
2023/12/21 03:57:56;;;;;;;19.70;4.63;;;9.90;99.90;;;;;;5031766;28;20045;-54
2023/12/21 04:00:22;;;;;;;15.68;7.13;;;10.40;99.90;;;;;;5031294;28;20099;-52
2023/12/21 04:02:48;;;;;;;19.38;5.53;;;10.60;99.90;;;;;;5031897;28;20037;-49
2023/12/21 04:05:14;;;;;;;13.80;3.38;;;9.90;99.90;;;;;;5031965;28;20068;-50
2023/12/21 04:07:40;;;;;;;15.88;3.33;;;10.60;99.90;;;;;;5029859;28;20099;-49
2023/12/21 04:10:06;;;;;;;18.42;5.40;;;10.10;99.90;;;;;;5030961;28;20037;-53
2023/12/21 04:12:32;;;;;;;18.00;3.25;;;10.70;99.90;;;;;;5046289;28;20037;-53
2023/12/21 04:14:58;;;;;;;14.60;3.20;;;10.60;99.90;;;;;;5031746;28;20064;-53
2023/12/21 04:17:23;;;;;;;17.38;3.70;;;10.60;99.90;;;;;;5031841;28;20396;-53
2023/12/21 04:19:49;;;;;;;16.55;3.88;;;10.40;99.90;;;;;;5031522;28;20045;-50
2023/12/21 04:22:15;;;;;;;18.80;4.32;;;10.20;99.90;;;;;;5031334;28;20041;-53
2023/12/21 04:24:46;;;;;;;14.23;3.08;;;10.60;99.90;;;;;;5030551;28;20032;-53
2023/12/21 04:27:12;;;;;;;18.30;4.18;;;9.80;99.90;;;;;;5031279;28;20103;-54
2023/12/21 04:29:38;;;;;;;20.73;3.90;;;9.80;99.90;;;;;;5046417;28;20389;-50
2023/12/21 04:32:05;;;;;;;19.85;4.53;;;10.50;99.90;;;;;;5031537;28;20026;-54
2023/12/21 04:34:31;;;;;;;21.58;4.78;;;9.80;99.90;;;;;;5031197;28;20389;-51
2023/12/21 04:36:57;;;;;;;15.02;4.18;;;10.00;99.90;;;;;;5031348;28;20040;-55
2023/12/21 04:39:23;;;;;;;20.02;4.85;;;10.10;99.90;;;;;;5030504;28;20037;-53
2023/12/21 04:41:49;;;;;;;20.88;3.78;;;10.20;99.90;;;;;;5031325;28;20036;-54
2023/12/21 04:44:15;;;;;;;15.98;3.85;;;10.40;99.90;;;;;;5029926;28;20045;-55
2023/12/21 04:46:41;;;;;;;15.40;3.63;;;10.10;99.90;;;;;;5027393;28;20057;-52
2023/12/21 04:49:07;;;;;;;18.17;3.58;;;10.10;99.90;;;;;;5031304;28;20056;-54
2023/12/21 04:51:33;;;;;;;12.80;4.35;;;10.10;99.90;;;;;;5028967;28;20403;-50
2023/12/21 04:53:59;;;;;;;10.90;3.28;;;9.90;99.90;;;;;;5030599;28;20034;-53
2023/12/21 04:56:24;;;;;;;10.70;3.13;;;9.90;99.90;;;;;;5028730;28;20045;-53
2023/12/21 04:58:50;;;;;;;15.60;2.88;;;10.70;99.90;;;;;;5029787;28;20055;-52
2023/12/21 05:01:16;;;;;;;14.40;3.05;;;10.40;99.90;;;;;;5030419;28;20041;-52
2023/12/21 05:03:42;;;;;;;19.80;2.92;;;10.60;99.90;;;;;;5030250;28;20045;-50
2023/12/21 05:06:07;;;;;;;9.55;2.30;;;10.80;99.90;;;;;;5030832;28;20038;-52
2023/12/21 05:08:33;;;;;;;14.25;2.17;;;10.70;99.90;;;;;;5030402;28;20064;-52
2023/12/21 05:10:59;;;;;;;16.13;2.80;;;10.80;99.90;;;;;;5030715;28;20045;-54
2023/12/21 05:13:24;;;;;;;12.10;2.92;;;10.90;99.90;;;;;;5030196;28;20354;-52
2023/12/21 05:15:50;;;;;;;19.38;2.90;;;10.30;99.90;;;;;;5030904;28;20485;-51
2023/12/21 05:18:16;;;;;;;16.13;2.58;;;10.40;99.90;;;;;;5030851;28;20481;-55
2023/12/21 05:20:41;;;;;;;10.90;2.20;;;10.30;99.90;;;;;;5030531;28;20037;-53
2023/12/21 05:23:07;;;;;;;12.95;1.95;;;10.70;99.90;;;;;;5030254;28;20037;-51
2023/12/21 05:25:33;;;;;;;12.05;2.97;;;10.50;99.90;;;;;;5030428;28;20069;-52
2023/12/21 05:27:58;;;;;;;12.88;2.40;;;10.40;99.90;;;;;;5030190;28;20520;-51
2023/12/21 05:30:24;;;;;;;18.15;2.45;;;11.10;99.90;;;;;;5030491;28;20045;-50
2023/12/21 05:32:50;;;;;;;10.20;2.28;;;10.60;99.90;;;;;;5030727;28;20045;-54
2023/12/21 05:35:16;;;;;;;19.85;3.25;;;11.00;99.90;;;;;;5030611;28;20630;-52
2023/12/21 05:37:41;;;;;;;15.30;2.65;;;11.10;99.90;;;;;;5028405;28;20044;-52
2023/12/21 05:40:08;;;;;;;13.88;2.65;;;11.10;99.90;;;;;;5030139;28;20038;-54
2023/12/21 05:42:34;;;;;;;18.67;3.33;;;10.50;99.90;;;;;;5030192;28;20497;-53
2023/12/21 05:44:59;;;;;;;10.68;2.00;;;10.80;99.90;;;;;;5030508;28;20112;-55
2023/12/21 05:47:25;;;;;;;15.25;2.33;;;10.50;99.90;;;;;;5030509;28;20504;-52
2023/12/21 05:49:50;;;;;;;12.60;2.38;;;10.70;99.90;;;;;;5030888;28;20471;-50
2023/12/21 05:52:16;;;;;;;12.85;2.22;;;10.50;99.90;;;;;;5030024;28;20551;-51
2023/12/21 05:54:42;;;;;;;17.08;2.30;;;11.00;99.90;;;;;;5029756;28;20030;-55
2023/12/21 05:57:12;;;;;;;10.30;2.35;;;10.60;99.90;;;;;;5030313;28;20037;-52
2023/12/21 05:59:38;;;;;;;9.60;2.28;;;10.60;99.90;;;;;;5030221;28;20075;-50
2023/12/21 06:02:04;;;;;;;20.08;2.80;;;11.00;99.90;;;;;;5030444;28;20113;-51
2023/12/21 06:04:30;;;;;;;15.90;3.20;;;11.00;99.90;;;;;;5030314;28;20409;-52
2023/12/21 06:06:56;;;;;;;17.27;2.72;;;11.00;99.90;;;;;;5030054;28;20107;-52
2023/12/21 06:09:22;;;;;;;13.70;2.20;;;10.50;99.90;;;;;;5029954;28;20400;-53
2023/12/21 06:11:47;;;;;;;13.60;2.63;;;10.30;99.90;;;;;;5030069;28;20041;-53
2023/12/21 06:14:13;;;;;;;15.20;3.05;;;10.50;99.90;;;;;;5030333;28;20033;-54
2023/12/21 06:16:39;;;;;;;13.80;2.30;;;10.20;99.90;;;;;;5030187;28;20045;-51
2023/12/21 06:19:10;;;;;;;16.25;2.92;;;10.30;99.90;;;;;;5029857;28;20083;-52
2023/12/21 06:21:39;;;;;;;18.88;3.42;;;10.60;99.90;;;;;;5044593;28;20041;-53
2023/12/21 06:24:06;;;;;;;15.23;2.80;;;10.30;99.90;;;;;;5032234;28;20072;-55
2023/12/21 06:26:32;;;;;;;14.77;2.50;;;10.80;99.90;;;;;;5033511;28;20087;-53
2023/12/21 06:28:58;;;;;;;16.63;2.45;;;10.30;99.90;;;;;;5033550;28;20481;-53
2023/12/21 06:31:24;;;;;;;11.40;1.83;;;10.50;99.90;;;;;;5033453;28;20096;-50
2023/12/21 06:33:52;;;;;;;10.27;2.03;;;11.10;99.90;;;;;;5033506;28;20168;-48
2023/12/21 06:36:17;;;;;;;10.88;2.30;;;10.30;99.90;;;;;;5033671;28;20044;-53
2023/12/21 06:38:43;;;;;;;12.65;2.40;;;10.60;99.90;;;;;;5033260;28;20068;-55
2023/12/21 06:41:13;;;;;;;15.07;1.83;;;11.00;99.90;;;;;;5032061;28;20395;-54
2023/12/21 06:43:39;;;;;;;16.83;1.95;;;10.50;99.90;;;;;;5048288;28;20049;-53
2023/12/21 06:46:12;;;;;;;13.40;3.05;;;10.60;99.90;;;;;;5032992;28;20057;-51
2023/12/21 06:48:38;;;;;;;11.63;2.08;;;11.00;99.90;;;;;;5033227;28;20049;-55
2023/12/21 06:51:04;;;;;;;13.80;2.28;;;10.70;99.90;;;;;;5033203;28;20068;-50
2023/12/21 06:53:29;;;;;;;13.63;2.60;;;11.00;99.90;;;;;;5033208;28;20041;-52
2023/12/21 06:55:55;;;;;;;12.10;2.45;;;10.40;99.90;;;;;;5032778;28;20045;-55
2023/12/21 06:58:21;;;;;;;10.55;2.67;;;10.20;99.90;;;;;;5032684;28;20049;-48
2023/12/21 07:00:47;;;;;;;14.38;2.70;;;10.50;99.90;;;;;;5032878;28;20048;-54
2023/12/21 07:03:13;;;;;;;13.07;4.00;;;10.30;99.90;;;;;;5032768;28;20088;-51
2023/12/21 07:05:38;;;;;;;17.63;3.28;;;10.40;99.90;;;;;;5032711;28;20041;-54
2023/12/21 07:08:04;;;;;;;8.95;2.22;;;10.40;99.90;;;;;;5032775;28;20038;-53
2023/12/21 07:10:30;;;;;;;11.10;2.10;;;10.50;99.90;;;;;;5032330;28;20055;-54
2023/12/21 07:12:56;;;;;;;11.80;2.55;;;10.70;99.90;;;;;;5032858;28;20045;-52
2023/12/21 07:15:21;;;;;;;10.38;2.97;;;10.20;99.90;;;;;;5032882;28;20436;-54
2023/12/21 07:17:47;;;;;;;15.85;2.70;;;10.50;99.90;;;;;;5032765;28;20068;-52
2023/12/21 07:20:13;;;;;;;14.98;3.63;;;10.90;99.90;;;;;;5032745;28;20083;-53
2023/12/21 07:22:38;;;;;;;14.48;3.42;;;10.20;99.90;;;;;;5032464;28;20030;-53
2023/12/21 07:25:04;;;;;;;11.75;3.05;;;10.30;99.90;;;;;;5032625;28;20033;-54
2023/12/21 07:27:30;;;;;;;20.65;3.50;;;10.90;99.90;;;;;;5032439;28;20083;-56
2023/12/21 07:29:56;;;;;;;13.52;3.10;;;10.70;99.90;;;;;;5029918;28;20039;-54
2023/12/21 07:32:21;;;;;;;10.52;3.17;;;10.50;99.90;;;;;;5032386;28;20128;-49
2023/12/21 07:34:47;;;;;;;12.50;3.03;;;10.10;99.90;;;;;;5031696;28;20069;-51
2023/12/21 07:37:16;;;;;;;11.15;2.80;;;10.40;99.90;;;;;;5032485;28;20052;-51
2023/12/21 07:39:42;;;;;;;13.70;3.50;;;10.50;99.90;;;;;;5031578;28;20077;-55
2023/12/21 07:42:08;;;;;;;9.15;2.80;;;10.10;99.90;;;;;;5032546;28;20072;-50
2023/12/21 07:44:35;;;;;;;16.08;3.33;;;10.20;99.90;;;;;;5031755;28;20045;-50
2023/12/21 07:47:02;;;;;;;11.77;2.95;;;10.80;99.90;;;;;;5029337;28;20057;-51
2023/12/21 07:49:28;;;;;;;10.25;2.55;;;10.40;99.90;;;;;;5031127;28;20128;-52
2023/12/21 07:51:55;;;;;;;13.35;2.63;;;10.00;99.90;;;;;;5029705;28;20045;-50
2023/12/21 07:54:20;;;;;;;17.33;2.40;;;10.00;99.90;;;;;;5031658;28;20091;-53
2023/12/21 07:56:47;;;;;;;15.20;2.92;;;10.90;99.90;;;;;;5030846;28;20048;-54
2023/12/21 07:59:13;;;;;;;12.10;2.85;;;10.70;99.90;;;;;;5031402;28;20116;-53
2023/12/21 08:01:39;;;;;;;14.63;2.50;;;10.00;99.90;;;;;;5030475;28;20034;-54
2023/12/21 08:04:07;;;;;;;10.02;2.70;;;10.50;99.90;;;;;;5031119;28;20103;-52
2023/12/21 08:06:32;;;;;;;10.77;2.80;;;10.20;99.90;;;;;;5029864;28;20084;-55
2023/12/21 08:08:58;;;;;;;12.82;2.65;;;10.10;99.90;;;;;;5031055;28;20485;-50
2023/12/21 08:11:24;;;;;;;15.60;3.05;;;10.10;99.90;;;;;;5031772;28;20037;-54
2023/12/21 08:13:51;;;;;;;14.77;2.67;;;10.90;99.90;;;;;;5031415;28;20041;-53
2023/12/21 08:16:17;;;;;;;12.07;2.95;;;10.20;99.90;;;;;;5031794;28;20052;-56
2023/12/21 08:18:44;;;;;;;12.20;2.75;;;11.10;99.90;;;;;;5031297;28;20512;-53
2023/12/21 08:21:10;;;;;;;13.10;2.75;;;10.90;99.90;;;;;;5031343;28;20041;-56
2023/12/21 08:23:35;;;;;;;13.32;3.33;;;11.00;99.90;;;;;;5027238;28;20045;-53
2023/12/21 08:26:03;;;;;;;8.63;2.80;;;10.30;99.90;;;;;;5030046;28;20103;-53
2023/12/21 08:28:30;;;;;;;10.80;2.38;;;10.80;99.90;;;;;;5030339;28;20037;-51
2023/12/21 08:30:56;;;;;;;10.43;3.13;;;10.30;99.90;;;;;;5030423;28;20055;-54
2023/12/21 08:33:22;;;;;;;17.13;3.38;;;10.20;99.90;;;;;;5029538;28;20048;-50
2023/12/21 08:35:48;;;;;;;14.13;3.03;;;10.90;99.90;;;;;;5029748;28;20037;-55
2023/12/21 08:38:13;;;;;;;19.98;3.22;;;10.20;99.90;;;;;;5029893;28;20044;-53
2023/12/21 08:40:39;;;;;;;17.55;3.40;;;11.00;99.90;;;;;;5028920;28;20071;-54
2023/12/21 08:43:05;;;;;;;20.58;3.63;;;10.90;99.90;;;;;;5029883;28;20488;-50
2023/12/21 08:45:32;;;;;;;13.38;3.10;;;10.50;99.90;;;;;;5029676;28;20433;-56
2023/12/21 08:47:58;;;;;;;11.48;2.97;;;10.30;99.90;;;;;;5028247;28;20045;-54
2023/12/21 08:50:24;;;;;;;14.07;3.22;;;11.10;99.90;;;;;;5029127;28;20432;-54
2023/12/21 08:52:50;;;;;;;14.48;3.75;;;10.60;99.90;;;;;;5026245;28;20041;-54
2023/12/21 08:55:16;;;;;;;12.15;3.03;;;10.40;99.90;;;;;;5029083;28;20037;-53
2023/12/21 08:57:41;;;;;;;21.92;2.97;;;11.00;99.90;;;;;;5027744;28;20045;-54
2023/12/21 09:00:12;;;;;;;14.20;2.97;;;10.40;99.90;;;;;;5025679;28;20396;-56
2023/12/21 09:02:39;;;;;;;12.35;2.25;;;11.20;99.90;;;;;;5026536;28;20049;-56
2023/12/21 09:05:06;;;;;;;17.40;2.80;;;10.40;99.90;;;;;;5028343;28;20504;-56
2023/12/21 09:07:32;;;;;;;18.42;2.53;;;10.60;99.90;;;;;;5027352;28;20631;-53
2023/12/21 09:09:59;;;;;;;18.35;2.88;;;10.40;99.90;;;;;;5027986;28;20037;-53
2023/12/21 09:12:25;;;;;;;16.98;3.80;;;11.20;99.90;;;;;;5026866;28;20237;-56
2023/12/21 09:14:50;;;;;;;18.30;2.65;;;11.10;99.90;;;;;;5026918;28;20041;-55
2023/12/21 09:17:18;;;;;;;12.80;2.30;;;10.30;99.90;;;;;;5026379;28;20050;-51
2023/12/21 09:19:44;;;;;;;16.85;2.58;;;11.20;99.90;;;;;;5026561;28;20067;-56
2023/12/21 09:22:10;;;;;;;13.00;3.30;;;10.50;99.90;;;;;;5025630;28;20045;-53
2023/12/21 09:24:39;;;;;;;14.43;2.55;;;10.50;99.90;;;;;;5026376;28;20179;-54
2023/12/21 09:27:05;;;;;;;14.18;2.60;;;11.20;99.90;;;;;;5027528;28;20045;-54
2023/12/21 09:29:30;;;;;;;8.70;1.90;;;10.40;99.90;;;;;;5027104;28;20159;-51
2023/12/21 09:31:57;;;;;;;10.98;1.75;;;10.50;99.90;;;;;;5026216;28;20071;-56
2023/12/21 09:34:22;;;;;;;9.93;1.98;;;10.40;99.90;;;;;;5026280;28;20064;-50
2023/12/21 09:36:48;;;;;;;14.77;2.50;;;11.20;99.90;;;;;;5026762;28;20041;-55
2023/12/21 09:39:14;;;;;;;20.45;2.42;;;11.10;99.90;;;;;;5025148;28;20041;-54
2023/12/21 09:41:40;;;;;;;11.80;2.00;;;10.70;99.90;;;;;;5025770;28;20053;-53
2023/12/21 09:44:06;;;;;;;17.98;2.40;;;11.50;99.90;;;;;;5026986;28;20072;-53
2023/12/21 09:46:39;;;;;;;19.67;2.88;;;11.20;99.90;;;;;;5026030;28;20056;-51
2023/12/21 09:49:09;;;;;;;18.60;1.98;;;10.70;99.90;;;;;;5026844;28;20049;-54
2023/12/21 09:51:37;;;;;;;15.15;2.38;;;11.50;99.90;;;;;;5027072;28;20034;-55
2023/12/21 09:54:07;;;;;;;19.45;3.38;;;10.90;99.90;;;;;;5024155;28;20033;-53
2023/12/21 09:56:33;;;;;;;19.08;2.22;;;10.60;99.90;;;;;;5026900;28;20041;-55
2023/12/21 09:59:01;;;;;;;14.27;2.00;;;11.50;99.90;;;;;;5027890;28;20140;-54
2023/12/21 10:01:27;;;;;;;12.43;2.05;;;11.30;99.90;;;;;;5030435;28;20129;-57
2023/12/21 10:03:52;;;;;;;17.17;2.40;;;10.80;99.90;;;;;;5030829;28;20577;-56
2023/12/21 10:06:18;;;;;;;16.40;2.53;;;11.50;99.90;;;;;;5030056;28;20078;-57
2023/12/21 10:08:44;;;;;;;14.32;2.15;;;11.60;99.90;;;;;;5029903;28;20042;-54
2023/12/21 10:11:10;;;;;;;14.07;2.42;;;10.80;99.90;;;;;;5030093;28;20033;-55
2023/12/21 10:13:35;;;;;;;13.10;2.40;;;10.90;99.90;;;;;;5028152;28;20037;-54
2023/12/21 10:16:04;;;;;;;13.23;2.13;;;10.80;99.90;;;;;;5025221;28;20079;-54
2023/12/21 10:18:30;;;;;;;16.33;2.22;;;10.80;99.90;;;;;;5025084;28;20091;-54
2023/12/21 10:20:57;;;;;;;15.18;2.33;;;10.90;99.90;;;;;;5031701;28;20072;-54
2023/12/21 10:23:24;;;;;;;18.63;2.00;;;11.50;99.90;;;;;;5031783;28;20038;-52
2023/12/21 10:25:54;;;;;;;11.90;3.08;;;11.60;99.90;;;;;;5029384;28;20491;-55
2023/12/21 10:28:23;;;;;;;11.20;1.58;;;11.80;99.90;;;;;;5030472;28;20091;-56
2023/12/21 10:30:57;;;;;;;13.35;2.65;;;11.30;99.90;;;;;;5031851;28;20046;-54
2023/12/21 10:33:25;;;;;;;11.98;1.90;;;11.20;99.90;;;;;;5032741;28;20033;-53
2023/12/21 10:35:52;;;;;;;10.73;1.75;;;11.90;99.90;;;;;;5028218;28;20044;-51
2023/12/21 10:38:19;;;;;;;11.45;1.80;;;12.10;99.90;;;;;;5029825;28;20515;-54
2023/12/21 10:40:49;;;;;;;13.40;2.25;;;11.30;99.90;;;;;;5030400;28;20508;-51
2023/12/21 10:43:16;;;;;;;13.25;1.85;;;11.50;99.90;;;;;;5031136;28;20045;-56
2023/12/21 10:45:45;;;;;;;12.93;2.22;;;11.90;99.90;;;;;;5029525;28;20168;-52
2023/12/21 10:48:16;;;;;;;9.40;1.85;;;11.50;99.90;;;;;;5030725;28;20048;-54
2023/12/21 10:50:47;;;;;;;11.18;2.55;;;11.60;99.90;;;;;;5031249;28;20110;-58
2023/12/21 10:53:13;;;;;;;11.63;1.60;;;11.40;99.90;;;;;;5029595;28;20103;-56
2023/12/21 10:55:43;;;;;;;9.27;1.52;;;11.60;99.90;;;;;;5031112;28;20041;-55
2023/12/21 10:58:11;;;;;;;11.45;1.63;;;11.80;99.90;;;;;;5030751;28;20045;-54
2023/12/21 11:00:37;;;;;;;9.07;1.75;;;11.80;99.90;;;;;;5031044;28;20045;-55
2023/12/21 11:03:06;;;;;;;11.13;1.90;;;11.30;99.90;;;;;;5031226;28;20045;-53
2023/12/21 11:05:34;;;;;;;14.45;2.88;;;11.60;99.90;;;;;;5030404;28;20071;-53
2023/12/21 11:08:00;;;;;;;16.17;2.28;;;11.90;99.90;;;;;;5030697;28;20110;-54
2023/12/21 11:10:26;;;;;;;11.48;1.95;;;11.60;99.90;;;;;;5029940;28;20060;-52
2023/12/21 11:12:52;;;;;;;9.68;1.52;;;11.70;99.90;;;;;;5031451;28;20045;-56
2023/12/21 11:15:19;;;;;;;15.75;3.00;;;11.90;99.90;;;;;;5030391;28;20099;-56
2023/12/21 11:17:50;;;;;;;8.27;1.60;;;11.70;99.90;;;;;;5031049;28;20033;-54
2023/12/21 11:20:19;;;;;;;15.35;2.47;;;12.10;99.90;;;;;;5030362;28;20038;-52
2023/12/21 11:22:45;;;;;;;16.52;2.13;;;11.60;99.90;;;;;;5028215;28;20072;-56
2023/12/21 11:25:12;;;;;;;13.35;1.98;;;11.40;99.90;;;;;;5025540;28;20608;-58
2023/12/21 11:27:41;;;;;;;15.20;2.10;;;11.90;99.90;;;;;;5030949;28;20041;-54
2023/12/21 11:30:11;;;;;;;15.50;2.20;;;11.20;99.90;;;;;;5027445;28;20029;-54
2023/12/21 11:32:41;;;;;;;21.55;2.50;;;11.70;99.90;;;;;;5029237;28;20041;-54
2023/12/21 11:35:24;;;;;;;19.45;3.20;;;11.30;99.90;;;;;;5031070;28;20063;-51
2023/12/21 11:37:54;;;;;;;15.48;2.78;;;11.80;99.90;;;;;;5026693;28;20749;-56
2023/12/21 11:40:21;;;;;;;15.82;2.50;;;11.60;99.90;;;;;;5043766;28;20053;-55
2023/12/21 11:42:48;;;;;;;22.20;2.60;;;11.80;99.90;;;;;;5026315;28;20059;-53
2023/12/21 11:45:31;;;;;;;16.52;2.35;;;11.30;99.90;;;;;;5027985;28;20045;-52
2023/12/21 11:48:04;;;;;;;17.05;2.10;;;11.20;99.90;;;;;;5027094;28;20053;-54
2023/12/21 11:50:33;;;;;;;11.70;2.25;;;11.30;99.90;;;;;;5027238;28;20481;-50
2023/12/21 11:53:09;;;;;;;17.42;2.70;;;11.70;99.90;;;;;;5026764;28;20515;-53
2023/12/21 11:55:43;;;;;;;15.50;1.88;;;11.40;99.90;;;;;;5029406;28;20040;-54
2023/12/21 11:58:19;;;;;;;14.15;2.30;;;11.20;99.90;;;;;;5028092;28;20159;-57
2023/12/21 12:00:49;;;;;;;10.85;2.35;;;11.40;99.90;;;;;;5023794;28;20033;-53
2023/12/21 12:03:15;;;;;;;16.05;2.22;;;11.70;99.90;;;;;;5029334;28;20127;-56
2023/12/21 12:05:41;;;;;;;18.13;2.28;;;11.40;99.90;;;;;;5026426;28;20479;-58
2023/12/21 12:08:07;;;;;;;17.10;1.90;;;11.50;99.90;;;;;;5027229;28;20145;-54
2023/12/21 12:10:33;;;;;;;19.23;2.15;;;11.30;99.90;;;;;;5027112;28;20107;-55
2023/12/21 12:13:01;;;;;;;17.73;2.95;;;11.80;99.90;;;;;;5023663;28;20444;-52
2023/12/21 12:15:27;;;;;;;16.75;2.22;;;11.60;99.90;;;;;;5027630;28;20037;-55
2023/12/21 12:17:53;;;;;;;10.40;1.88;;;11.80;99.90;;;;;;5027284;28;20450;-55
2023/12/21 12:20:19;;;;;;;15.85;2.10;;;11.40;99.90;;;;;;5026420;28;20131;-54
2023/12/21 12:22:45;;;;;;;13.88;2.30;;;11.40;99.90;;;;;;5021990;28;20542;-54
2023/12/21 12:25:17;;;;;;;24.88;3.40;;;11.40;99.90;;;;;;5027598;28;20045;-56
2023/12/21 12:27:43;;;;;;;16.45;3.85;;;11.90;99.90;;;;;;5025381;28;20087;-57
2023/12/21 12:30:11;;;;;;;23.73;2.90;;;11.70;99.90;;;;;;5025599;28;20072;-54
2023/12/21 12:32:37;;;;;;;22.45;3.50;;;11.50;99.90;;;;;;5017057;28;20041;-57
2023/12/21 12:35:03;;;;;;;19.42;2.90;;;11.50;99.90;;;;;;5025068;28;20052;-55